sensor_id;sensor_type;location;lat;lon;timestamp;pressure;altitude;pressure_sealevel;temperature
69590;BMP180;56792;50.644;17.984;2022-11-20T00:02:15;99352.80;;;-6.28
69590;BMP180;56792;50.644;17.984;2022-11-20T00:04:48;99360.80;;;-6.30
69590;BMP180;56792;50.644;17.984;2022-11-20T00:07:21;99361.00;;;-6.40
69590;BMP180;56792;50.644;17.984;2022-11-20T00:09:55;99359.40;;;-6.40
69590;BMP180;56792;50.644;17.984;2022-11-20T00:12:29;99361.40;;;-6.44
69590;BMP180;56792;50.644;17.984;2022-11-20T00:15:03;99361.00;;;-6.50
69590;BMP180;56792;50.644;17.984;2022-11-20T00:17:36;99356.60;;;-6.56
69590;BMP180;56792;50.644;17.984;2022-11-20T00:20:12;99355.60;;;-6.60
69590;BMP180;56792;50.644;17.984;2022-11-20T00:22:45;99354.40;;;-6.60
69590;BMP180;56792;50.644;17.984;2022-11-20T00:25:17;99352.00;;;-6.70
69590;BMP180;56792;50.644;17.984;2022-11-20T00:27:49;99352.40;;;-6.70
69590;BMP180;56792;50.644;17.984;2022-11-20T00:30:22;99349.60;;;-6.70
69590;BMP180;56792;50.644;17.984;2022-11-20T00:32:55;99343.80;;;-6.70
69590;BMP180;56792;50.644;17.984;2022-11-20T00:35:28;99344.00;;;-6.70
69590;BMP180;56792;50.644;17.984;2022-11-20T00:38:00;99345.00;;;-6.70
69590;BMP180;56792;50.644;17.984;2022-11-20T00:40:32;99350.40;;;-6.70
69590;BMP180;56792;50.644;17.984;2022-11-20T00:43:04;99348.80;;;-6.78
69590;BMP180;56792;50.644;17.984;2022-11-20T00:45:36;99349.80;;;-6.80
69590;BMP180;56792;50.644;17.984;2022-11-20T00:48:08;99341.20;;;-6.82
69590;BMP180;56792;50.644;17.984;2022-11-20T00:50:40;99343.60;;;-6.90
69590;BMP180;56792;50.644;17.984;2022-11-20T00:53:12;99343.80;;;-6.90
69590;BMP180;56792;50.644;17.984;2022-11-20T00:55:44;99341.80;;;-6.96
69590;BMP180;56792;50.644;17.984;2022-11-20T00:58:24;99346.60;;;-7.00
69590;BMP180;56792;50.644;17.984;2022-11-20T01:01:01;99344.60;;;-7.00
69590;BMP180;56792;50.644;17.984;2022-11-20T01:03:37;99342.80;;;-7.00
69590;BMP180;56792;50.644;17.984;2022-11-20T01:06:14;99345.20;;;-7.04
69590;BMP180;56792;50.644;17.984;2022-11-20T01:08:47;99341.20;;;-7.08
69590;BMP180;56792;50.644;17.984;2022-11-20T01:11:22;99343.60;;;-7.10
69590;BMP180;56792;50.644;17.984;2022-11-20T01:13:56;99340.40;;;-7.00
69590;BMP180;56792;50.644;17.984;2022-11-20T01:16:31;99342.20;;;-7.00
69590;BMP180;56792;50.644;17.984;2022-11-20T01:19:06;99336.00;;;-7.10
69590;BMP180;56792;50.644;17.984;2022-11-20T01:21:41;99344.20;;;-7.10
69590;BMP180;56792;50.644;17.984;2022-11-20T01:24:16;99347.40;;;-7.10
69590;BMP180;56792;50.644;17.984;2022-11-20T01:26:51;99342.80;;;-7.10
69590;BMP180;56792;50.644;17.984;2022-11-20T01:29:24;99336.20;;;-7.10
69590;BMP180;56792;50.644;17.984;2022-11-20T01:31:56;99330.80;;;-7.10
69590;BMP180;56792;50.644;17.984;2022-11-20T01:34:28;99326.20;;;-7.10
69590;BMP180;56792;50.644;17.984;2022-11-20T01:37:01;99326.20;;;-7.10
69590;BMP180;56792;50.644;17.984;2022-11-20T01:39:33;99316.60;;;-7.10
69590;BMP180;56792;50.644;17.984;2022-11-20T01:42:05;99319.80;;;-7.10
69590;BMP180;56792;50.644;17.984;2022-11-20T01:44:57;99320.20;;;-7.20
69590;BMP180;56792;50.644;17.984;2022-11-20T01:47:40;99322.20;;;-7.20
69590;BMP180;56792;50.644;17.984;2022-11-20T01:50:17;99320.00;;;-7.20
69590;BMP180;56792;50.644;17.984;2022-11-20T01:52:56;99317.40;;;-7.24
69590;BMP180;56792;50.644;17.984;2022-11-20T01:55:32;99312.20;;;-7.30
69590;BMP180;56792;50.644;17.984;2022-11-20T01:58:07;99310.00;;;-7.30
69590;BMP180;56792;50.644;17.984;2022-11-20T02:00:40;99314.80;;;-7.38
69590;BMP180;56792;50.644;17.984;2022-11-20T02:03:15;99311.00;;;-7.30
69590;BMP180;56792;50.644;17.984;2022-11-20T02:05:54;99314.00;;;-7.32
69590;BMP180;56792;50.644;17.984;2022-11-20T02:08:27;99320.20;;;-7.30
69590;BMP180;56792;50.644;17.984;2022-11-20T02:10:59;99322.60;;;-7.40
69590;BMP180;56792;50.644;17.984;2022-11-20T02:13:33;99314.40;;;-7.40
69590;BMP180;56792;50.644;17.984;2022-11-20T02:16:25;99317.20;;;-7.40
69590;BMP180;56792;50.644;17.984;2022-11-20T02:19:00;99312.00;;;-7.40
69590;BMP180;56792;50.644;17.984;2022-11-20T02:21:42;99314.60;;;-7.38
69590;BMP180;56792;50.644;17.984;2022-11-20T02:24:19;99300.60;;;-7.40
69590;BMP180;56792;50.644;17.984;2022-11-20T02:26:56;99304.80;;;-7.50
69590;BMP180;56792;50.644;17.984;2022-11-20T02:29:33;99295.60;;;-7.50
69590;BMP180;56792;50.644;17.984;2022-11-20T02:32:06;99291.40;;;-7.60
69590;BMP180;56792;50.644;17.984;2022-11-20T02:34:49;99291.00;;;-7.60
69590;BMP180;56792;50.644;17.984;2022-11-20T02:37:22;99294.60;;;-7.60
69590;BMP180;56792;50.644;17.984;2022-11-20T02:39:55;99302.60;;;-7.60
69590;BMP180;56792;50.644;17.984;2022-11-20T02:42:27;99310.40;;;-7.60
69590;BMP180;56792;50.644;17.984;2022-11-20T02:44:59;99306.20;;;-7.60
69590;BMP180;56792;50.644;17.984;2022-11-20T02:47:31;99309.40;;;-7.54
69590;BMP180;56792;50.644;17.984;2022-11-20T02:50:05;99314.60;;;-7.50
69590;BMP180;56792;50.644;17.984;2022-11-20T02:52:37;99325.40;;;-7.50
69590;BMP180;56792;50.644;17.984;2022-11-20T02:55:10;99318.60;;;-7.50
69590;BMP180;56792;50.644;17.984;2022-11-20T02:57:42;99316.80;;;-7.60
69590;BMP180;56792;50.644;17.984;2022-11-20T03:00:16;99315.80;;;-7.60
69590;BMP180;56792;50.644;17.984;2022-11-20T03:02:48;99316.20;;;-7.60
69590;BMP180;56792;50.644;17.984;2022-11-20T03:05:21;99318.00;;;-7.68
69590;BMP180;56792;50.644;17.984;2022-11-20T03:07:53;99320.20;;;-7.80
69590;BMP180;56792;50.644;17.984;2022-11-20T03:10:25;99319.00;;;-7.80
69590;BMP180;56792;50.644;17.984;2022-11-20T03:12:58;99318.60;;;-7.82
69590;BMP180;56792;50.644;17.984;2022-11-20T03:15:30;99317.60;;;-7.80
69590;BMP180;56792;50.644;17.984;2022-11-20T03:18:02;99315.00;;;-7.80
69590;BMP180;56792;50.644;17.984;2022-11-20T03:20:35;99313.00;;;-7.80
69590;BMP180;56792;50.644;17.984;2022-11-20T03:23:07;99307.00;;;-7.78
69590;BMP180;56792;50.644;17.984;2022-11-20T03:25:39;99306.00;;;-7.80
69590;BMP180;56792;50.644;17.984;2022-11-20T03:28:11;99306.20;;;-7.80
69590;BMP180;56792;50.644;17.984;2022-11-20T03:30:43;99308.80;;;-7.84
69590;BMP180;56792;50.644;17.984;2022-11-20T03:33:15;99312.00;;;-7.90
69590;BMP180;56792;50.644;17.984;2022-11-20T03:35:47;99314.60;;;-7.90
69590;BMP180;56792;50.644;17.984;2022-11-20T03:38:19;99318.40;;;-7.90
69590;BMP180;56792;50.644;17.984;2022-11-20T03:40:51;99318.60;;;-7.90
69590;BMP180;56792;50.644;17.984;2022-11-20T03:43:23;99318.00;;;-7.90
69590;BMP180;56792;50.644;17.984;2022-11-20T03:45:55;99313.80;;;-7.98
69590;BMP180;56792;50.644;17.984;2022-11-20T03:48:27;99315.20;;;-7.90
69590;BMP180;56792;50.644;17.984;2022-11-20T03:51:13;99313.40;;;-7.90
69590;BMP180;56792;50.644;17.984;2022-11-20T03:53:48;99317.20;;;-7.90
69590;BMP180;56792;50.644;17.984;2022-11-20T03:56:25;99322.00;;;-7.90
69590;BMP180;56792;50.644;17.984;2022-11-20T03:58:57;99318.20;;;-7.90
69590;BMP180;56792;50.644;17.984;2022-11-20T04:01:31;99320.60;;;-7.90
69590;BMP180;56792;50.644;17.984;2022-11-20T04:04:04;99324.60;;;-7.90
69590;BMP180;56792;50.644;17.984;2022-11-20T04:06:39;99321.20;;;-7.90
69590;BMP180;56792;50.644;17.984;2022-11-20T04:09:11;99324.80;;;-7.90
69590;BMP180;56792;50.644;17.984;2022-11-20T04:11:43;99322.60;;;-7.86
69590;BMP180;56792;50.644;17.984;2022-11-20T04:14:18;99325.40;;;-7.80
69590;BMP180;56792;50.644;17.984;2022-11-20T04:16:50;99325.40;;;-7.80
69590;BMP180;56792;50.644;17.984;2022-11-20T04:19:22;99318.00;;;-7.80
69590;BMP180;56792;50.644;17.984;2022-11-20T04:21:54;99321.00;;;-7.80
69590;BMP180;56792;50.644;17.984;2022-11-20T04:24:27;99320.60;;;-7.80
69590;BMP180;56792;50.644;17.984;2022-11-20T04:26:59;99325.60;;;-7.80
69590;BMP180;56792;50.644;17.984;2022-11-20T04:29:31;99321.60;;;-7.80
69590;BMP180;56792;50.644;17.984;2022-11-20T04:32:03;99319.00;;;-7.80
69590;BMP180;56792;50.644;17.984;2022-11-20T04:34:35;99315.80;;;-7.80
69590;BMP180;56792;50.644;17.984;2022-11-20T04:37:07;99312.60;;;-7.86
69590;BMP180;56792;50.644;17.984;2022-11-20T04:39:39;99314.20;;;-7.90
69590;BMP180;56792;50.644;17.984;2022-11-20T04:42:13;99313.00;;;-7.90
69590;BMP180;56792;50.644;17.984;2022-11-20T04:45:00;99306.40;;;-7.90
69590;BMP180;56792;50.644;17.984;2022-11-20T04:47:32;99305.40;;;-7.90
69590;BMP180;56792;50.644;17.984;2022-11-20T04:50:05;99298.40;;;-7.90
69590;BMP180;56792;50.644;17.984;2022-11-20T04:52:37;99300.60;;;-8.00
69590;BMP180;56792;50.644;17.984;2022-11-20T04:55:10;99296.60;;;-8.00
69590;BMP180;56792;50.644;17.984;2022-11-20T04:57:42;99291.20;;;-8.00
69590;BMP180;56792;50.644;17.984;2022-11-20T05:00:17;99288.20;;;-8.00
69590;BMP180;56792;50.644;17.984;2022-11-20T05:02:49;99287.60;;;-8.00
69590;BMP180;56792;50.644;17.984;2022-11-20T05:05:21;99290.40;;;-8.02
69590;BMP180;56792;50.644;17.984;2022-11-20T05:07:53;99287.60;;;-8.00
69590;BMP180;56792;50.644;17.984;2022-11-20T05:10:27;99286.80;;;-8.10
69590;BMP180;56792;50.644;17.984;2022-11-20T05:13:00;99288.60;;;-8.10
69590;BMP180;56792;50.644;17.984;2022-11-20T05:15:32;99289.40;;;-8.10
69590;BMP180;56792;50.644;17.984;2022-11-20T05:18:04;99290.00;;;-8.10
69590;BMP180;56792;50.644;17.984;2022-11-20T05:20:36;99290.20;;;-8.00
69590;BMP180;56792;50.644;17.984;2022-11-20T05:23:08;99293.60;;;-8.10
69590;BMP180;56792;50.644;17.984;2022-11-20T05:25:40;99296.80;;;-8.10
69590;BMP180;56792;50.644;17.984;2022-11-20T05:28:12;99293.60;;;-8.16
69590;BMP180;56792;50.644;17.984;2022-11-20T05:30:44;99283.00;;;-8.20
69590;BMP180;56792;50.644;17.984;2022-11-20T05:33:17;99286.60;;;-8.20
69590;BMP180;56792;50.644;17.984;2022-11-20T05:35:49;99289.60;;;-8.20
69590;BMP180;56792;50.644;17.984;2022-11-20T05:38:21;99283.20;;;-8.20
69590;BMP180;56792;50.644;17.984;2022-11-20T05:40:53;99285.00;;;-8.20
69590;BMP180;56792;50.644;17.984;2022-11-20T05:43:24;99282.00;;;-8.20
69590;BMP180;56792;50.644;17.984;2022-11-20T05:45:57;99281.40;;;-8.20
69590;BMP180;56792;50.644;17.984;2022-11-20T05:48:29;99279.40;;;-8.30
69590;BMP180;56792;50.644;17.984;2022-11-20T05:51:03;99281.80;;;-8.30
69590;BMP180;56792;50.644;17.984;2022-11-20T05:53:37;99281.00;;;-8.30
69590;BMP180;56792;50.644;17.984;2022-11-20T05:56:12;99280.80;;;-8.30
69590;BMP180;56792;50.644;17.984;2022-11-20T05:58:44;99280.00;;;-8.40
69590;BMP180;56792;50.644;17.984;2022-11-20T06:01:19;99280.00;;;-8.40
69590;BMP180;56792;50.644;17.984;2022-11-20T06:03:52;99278.00;;;-8.40
69590;BMP180;56792;50.644;17.984;2022-11-20T06:06:24;99276.00;;;-8.50
69590;BMP180;56792;50.644;17.984;2022-11-20T06:08:57;99277.60;;;-8.50
69590;BMP180;56792;50.644;17.984;2022-11-20T06:11:30;99282.00;;;-8.50
69590;BMP180;56792;50.644;17.984;2022-11-20T06:14:02;99285.40;;;-8.50
69590;BMP180;56792;50.644;17.984;2022-11-20T06:16:34;99280.40;;;-8.50
69590;BMP180;56792;50.644;17.984;2022-11-20T06:19:06;99281.00;;;-8.40
69590;BMP180;56792;50.644;17.984;2022-11-20T06:21:39;99281.00;;;-8.40
69590;BMP180;56792;50.644;17.984;2022-11-20T06:24:12;99279.20;;;-8.50
69590;BMP180;56792;50.644;17.984;2022-11-20T06:26:44;99278.60;;;-8.40
69590;BMP180;56792;50.644;17.984;2022-11-20T06:29:18;99276.80;;;-8.40
69590;BMP180;56792;50.644;17.984;2022-11-20T06:31:50;99275.00;;;-8.44
69590;BMP180;56792;50.644;17.984;2022-11-20T06:34:22;99271.40;;;-8.50
69590;BMP180;56792;50.644;17.984;2022-11-20T06:36:54;99276.20;;;-8.46
69590;BMP180;56792;50.644;17.984;2022-11-20T06:39:26;99278.20;;;-8.46
69590;BMP180;56792;50.644;17.984;2022-11-20T06:41:58;99276.20;;;-8.40
69590;BMP180;56792;50.644;17.984;2022-11-20T06:44:30;99261.80;;;-8.40
69590;BMP180;56792;50.644;17.984;2022-11-20T06:47:02;99254.60;;;-8.34
69590;BMP180;56792;50.644;17.984;2022-11-20T06:49:35;99253.80;;;-8.32
69590;BMP180;56792;50.644;17.984;2022-11-20T06:52:09;99255.20;;;-8.30
69590;BMP180;56792;50.644;17.984;2022-11-20T06:54:41;99256.00;;;-8.30
69590;BMP180;56792;50.644;17.984;2022-11-20T06:57:13;99249.60;;;-8.20
69590;BMP180;56792;50.644;17.984;2022-11-20T06:59:45;99246.80;;;-8.20
69590;BMP180;56792;50.644;17.984;2022-11-20T07:02:18;99246.80;;;-8.20
69590;BMP180;56792;50.644;17.984;2022-11-20T07:04:50;99247.00;;;-8.10
69590;BMP180;56792;50.644;17.984;2022-11-20T07:07:22;99244.20;;;-8.00
69590;BMP180;56792;50.644;17.984;2022-11-20T07:09:54;99243.20;;;-7.98
69590;BMP180;56792;50.644;17.984;2022-11-20T07:12:27;99238.80;;;-7.90
69590;BMP180;56792;50.644;17.984;2022-11-20T07:14:59;99228.80;;;-7.90
69590;BMP180;56792;50.644;17.984;2022-11-20T07:17:31;99228.20;;;-7.80
69590;BMP180;56792;50.644;17.984;2022-11-20T07:20:04;99239.20;;;-7.70
69590;BMP180;56792;50.644;17.984;2022-11-20T07:22:37;99238.80;;;-7.50
69590;BMP180;56792;50.644;17.984;2022-11-20T07:25:11;99232.60;;;-7.30
69590;BMP180;56792;50.644;17.984;2022-11-20T07:27:43;99228.80;;;-7.00
69590;BMP180;56792;50.644;17.984;2022-11-20T07:30:17;99231.40;;;-6.78
69590;BMP180;56792;50.644;17.984;2022-11-20T07:32:54;99228.00;;;-6.50
69590;BMP180;56792;50.644;17.984;2022-11-20T07:35:27;99218.00;;;-6.20
69590;BMP180;56792;50.644;17.984;2022-11-20T07:37:59;99211.20;;;-5.92
69590;BMP180;56792;50.644;17.984;2022-11-20T07:40:31;99212.60;;;-5.60
69590;BMP180;56792;50.644;17.984;2022-11-20T07:43:03;99210.40;;;-5.36
69590;BMP180;56792;50.644;17.984;2022-11-20T07:45:35;99205.60;;;-5.04
69590;BMP180;56792;50.644;17.984;2022-11-20T07:48:08;99206.60;;;-4.78
69590;BMP180;56792;50.644;17.984;2022-11-20T07:50:41;99212.40;;;-4.46
69590;BMP180;56792;50.644;17.984;2022-11-20T07:53:13;99210.00;;;-4.16
69590;BMP180;56792;50.644;17.984;2022-11-20T07:55:51;99213.00;;;-3.80
69590;BMP180;56792;50.644;17.984;2022-11-20T07:58:24;99204.20;;;-3.50
69590;BMP180;56792;50.644;17.984;2022-11-20T08:00:57;99208.60;;;-3.20
69590;BMP180;56792;50.644;17.984;2022-11-20T08:03:29;99218.40;;;-2.90
69590;BMP180;56792;50.644;17.984;2022-11-20T08:06:03;99214.80;;;-2.70
69590;BMP180;56792;50.644;17.984;2022-11-20T08:08:36;99215.00;;;-2.36
69590;BMP180;56792;50.644;17.984;2022-11-20T08:11:10;99223.80;;;-2.12
69590;BMP180;56792;50.644;17.984;2022-11-20T08:14:00;99217.60;;;-1.80
69590;BMP180;56792;50.644;17.984;2022-11-20T08:16:47;99218.80;;;-1.50
69590;BMP180;56792;50.644;17.984;2022-11-20T08:19:20;99214.00;;;-1.50
69590;BMP180;56792;50.644;17.984;2022-11-20T08:21:53;99209.20;;;-1.24
69590;BMP180;56792;50.644;17.984;2022-11-20T08:24:25;99213.40;;;-1.00
69590;BMP180;56792;50.644;17.984;2022-11-20T08:26:58;99214.60;;;-0.82
69590;BMP180;56792;50.644;17.984;2022-11-20T08:29:39;99216.40;;;-0.68
69590;BMP180;56792;50.644;17.984;2022-11-20T08:32:11;99215.00;;;-0.42
69590;BMP180;56792;50.644;17.984;2022-11-20T08:34:44;99213.00;;;-0.18
69590;BMP180;56792;50.644;17.984;2022-11-20T08:37:16;99214.00;;;0.10
69590;BMP180;56792;50.644;17.984;2022-11-20T08:39:49;99215.60;;;0.30
69590;BMP180;56792;50.644;17.984;2022-11-20T08:42:21;99223.60;;;0.44
69590;BMP180;56792;50.644;17.984;2022-11-20T08:44:53;99223.20;;;0.68
69590;BMP180;56792;50.644;17.984;2022-11-20T08:47:26;99221.20;;;0.80
69590;BMP180;56792;50.644;17.984;2022-11-20T08:49:58;99225.60;;;0.90
69590;BMP180;56792;50.644;17.984;2022-11-20T08:52:31;99221.80;;;1.00
69590;BMP180;56792;50.644;17.984;2022-11-20T08:55:04;99220.40;;;1.20
69590;BMP180;56792;50.644;17.984;2022-11-20T08:57:37;99220.80;;;1.46
69590;BMP180;56792;50.644;17.984;2022-11-20T09:00:14;99220.40;;;1.72
69590;BMP180;56792;50.644;17.984;2022-11-20T09:02:46;99218.60;;;1.80
69590;BMP180;56792;50.644;17.984;2022-11-20T09:05:19;99217.20;;;1.88
69590;BMP180;56792;50.644;17.984;2022-11-20T09:07:51;99213.20;;;2.00
69590;BMP180;56792;50.644;17.984;2022-11-20T09:10:24;99212.00;;;2.26
69590;BMP180;56792;50.644;17.984;2022-11-20T09:12:57;99214.20;;;2.60
69590;BMP180;56792;50.644;17.984;2022-11-20T09:15:29;99212.40;;;2.60
69590;BMP180;56792;50.644;17.984;2022-11-20T09:18:04;99210.20;;;2.50
69590;BMP180;56792;50.644;17.984;2022-11-20T09:20:38;99205.00;;;2.80
69590;BMP180;56792;50.644;17.984;2022-11-20T09:23:11;99206.40;;;3.00
69590;BMP180;56792;50.644;17.984;2022-11-20T09:25:44;99206.00;;;3.10
69590;BMP180;56792;50.644;17.984;2022-11-20T09:28:18;99198.20;;;3.04
69590;BMP180;56792;50.644;17.984;2022-11-20T09:30:51;99202.40;;;3.34
69590;BMP180;56792;50.644;17.984;2022-11-20T09:33:24;99201.00;;;3.86
69590;BMP180;56792;50.644;17.984;2022-11-20T09:35:56;99201.00;;;4.48
69590;BMP180;56792;50.644;17.984;2022-11-20T09:38:29;99195.00;;;4.88
69590;BMP180;56792;50.644;17.984;2022-11-20T09:41:14;99196.40;;;5.72
69590;BMP180;56792;50.644;17.984;2022-11-20T09:44:01;99189.00;;;6.76
69590;BMP180;56792;50.644;17.984;2022-11-20T09:46:43;99194.20;;;7.58
69590;BMP180;56792;50.644;17.984;2022-11-20T09:49:31;99199.20;;;8.22
69590;BMP180;56792;50.644;17.984;2022-11-20T09:52:22;99201.60;;;8.60
69590;BMP180;56792;50.644;17.984;2022-11-20T09:54:59;99199.40;;;8.08
69590;BMP180;56792;50.644;17.984;2022-11-20T09:57:39;99198.60;;;6.98
69590;BMP180;56792;50.644;17.984;2022-11-20T10:00:18;99192.40;;;6.40
69590;BMP180;56792;50.644;17.984;2022-11-20T10:02:59;99188.60;;;5.80
69590;BMP180;56792;50.644;17.984;2022-11-20T10:05:37;99187.40;;;4.84
69590;BMP180;56792;50.644;17.984;2022-11-20T10:08:23;99175.80;;;4.14
69590;BMP180;56792;50.644;17.984;2022-11-20T10:11:11;99174.60;;;3.72
69590;BMP180;56792;50.644;17.984;2022-11-20T10:13:59;99170.80;;;3.58
69590;BMP180;56792;50.644;17.984;2022-11-20T10:16:50;99170.20;;;3.60
69590;BMP180;56792;50.644;17.984;2022-11-20T10:19:47;99169.00;;;3.20
69590;BMP180;56792;50.644;17.984;2022-11-20T10:22:43;99169.20;;;3.58
69590;BMP180;56792;50.644;17.984;2022-11-20T10:25:20;99160.20;;;4.08
69590;BMP180;56792;50.644;17.984;2022-11-20T10:28:13;99158.40;;;5.50
69590;BMP180;56792;50.644;17.984;2022-11-20T10:30:51;99153.40;;;6.40
69590;BMP180;56792;50.644;17.984;2022-11-20T10:33:29;99149.40;;;6.54
69590;BMP180;56792;50.644;17.984;2022-11-20T10:36:15;99150.80;;;7.80
69590;BMP180;56792;50.644;17.984;2022-11-20T10:38:54;99153.40;;;7.88
69590;BMP180;56792;50.644;17.984;2022-11-20T10:41:30;99155.80;;;7.80
69590;BMP180;56792;50.644;17.984;2022-11-20T10:44:12;99155.80;;;7.46
69590;BMP180;56792;50.644;17.984;2022-11-20T10:46:46;99147.20;;;6.80
69590;BMP180;56792;50.644;17.984;2022-11-20T10:49:21;99145.00;;;6.30
69590;BMP180;56792;50.644;17.984;2022-11-20T10:52:09;99139.20;;;5.90
69590;BMP180;56792;50.644;17.984;2022-11-20T10:54:52;99143.20;;;5.70
69590;BMP180;56792;50.644;17.984;2022-11-20T10:57:48;99137.60;;;5.40
69590;BMP180;56792;50.644;17.984;2022-11-20T11:00:22;99133.40;;;5.10
69590;BMP180;56792;50.644;17.984;2022-11-20T11:02:55;99129.20;;;5.00
69590;BMP180;56792;50.644;17.984;2022-11-20T11:05:39;99122.80;;;5.22
69590;BMP180;56792;50.644;17.984;2022-11-20T11:08:17;99121.00;;;7.04
69590;BMP180;56792;50.644;17.984;2022-11-20T11:10:57;99118.20;;;8.86
69590;BMP180;56792;50.644;17.984;2022-11-20T11:13:34;99109.20;;;10.24
69590;BMP180;56792;50.644;17.984;2022-11-20T11:16:21;99113.20;;;11.26
69590;BMP180;56792;50.644;17.984;2022-11-20T11:19:05;99122.20;;;12.26
69590;BMP180;56792;50.644;17.984;2022-11-20T11:21:38;99116.20;;;12.48
69590;BMP180;56792;50.644;17.984;2022-11-20T11:24:24;99119.20;;;12.84
69590;BMP180;56792;50.644;17.984;2022-11-20T11:27:02;99125.20;;;13.30
69590;BMP180;56792;50.644;17.984;2022-11-20T11:29:37;99123.40;;;13.56
69590;BMP180;56792;50.644;17.984;2022-11-20T11:32:20;99123.00;;;13.80
69590;BMP180;56792;50.644;17.984;2022-11-20T11:35:20;99124.60;;;14.00
69590;BMP180;56792;50.644;17.984;2022-11-20T11:38:01;99122.80;;;14.10
69590;BMP180;56792;50.644;17.984;2022-11-20T11:40:36;99126.60;;;14.50
69590;BMP180;56792;50.644;17.984;2022-11-20T11:43:22;99121.20;;;14.18
69590;BMP180;56792;50.644;17.984;2022-11-20T11:46:29;99123.40;;;14.50
69590;BMP180;56792;50.644;17.984;2022-11-20T11:49:17;99117.40;;;14.60
69590;BMP180;56792;50.644;17.984;2022-11-20T11:52:12;99115.60;;;15.00
69590;BMP180;56792;50.644;17.984;2022-11-20T11:54:52;99114.40;;;14.84
69590;BMP180;56792;50.644;17.984;2022-11-20T11:57:32;99120.40;;;14.60
69590;BMP180;56792;50.644;17.984;2022-11-20T12:00:11;99104.00;;;14.84
69590;BMP180;56792;50.644;17.984;2022-11-20T12:02:56;99104.40;;;15.16
69590;BMP180;56792;50.644;17.984;2022-11-20T12:05:39;99101.00;;;15.20
69590;BMP180;56792;50.644;17.984;2022-11-20T12:08:21;99087.60;;;15.24
69590;BMP180;56792;50.644;17.984;2022-11-20T12:11:03;99087.60;;;15.60
69590;BMP180;56792;50.644;17.984;2022-11-20T12:13:47;99077.80;;;15.70
69590;BMP180;56792;50.644;17.984;2022-11-20T12:16:22;99069.80;;;15.92
69590;BMP180;56792;50.644;17.984;2022-11-20T12:18:56;99077.40;;;16.04
69590;BMP180;56792;50.644;17.984;2022-11-20T12:21:40;99076.40;;;16.30
69590;BMP180;56792;50.644;17.984;2022-11-20T12:24:47;99076.60;;;16.18
69590;BMP180;56792;50.644;17.984;2022-11-20T12:27:59;99075.20;;;16.30
69590;BMP180;56792;50.644;17.984;2022-11-20T12:30:42;99074.40;;;16.30
69590;BMP180;56792;50.644;17.984;2022-11-20T12:36:45;99070.00;;;15.90
69590;BMP180;56792;50.644;17.984;2022-11-20T12:39:35;99074.40;;;16.08
69590;BMP180;56792;50.644;17.984;2022-11-20T12:46:00;99056.40;;;16.10
69590;BMP180;56792;50.644;17.984;2022-11-20T12:49:15;99044.00;;;16.20
69590;BMP180;56792;50.644;17.984;2022-11-20T12:52:17;99035.60;;;15.86
69590;BMP180;56792;50.644;17.984;2022-11-20T12:55:24;99039.00;;;16.20
69590;BMP180;56792;50.644;17.984;2022-11-20T12:58:09;99034.60;;;16.20
69590;BMP180;56792;50.644;17.984;2022-11-20T13:00:57;99031.40;;;15.88
69590;BMP180;56792;50.644;17.984;2022-11-20T13:03:43;99030.80;;;15.50
69590;BMP180;56792;50.644;17.984;2022-11-20T13:06:20;99039.20;;;15.20
69590;BMP180;56792;50.644;17.984;2022-11-20T13:08:57;99044.80;;;14.96
69590;BMP180;56792;50.644;17.984;2022-11-20T13:11:36;99053.00;;;13.50
69590;BMP180;56792;50.644;17.984;2022-11-20T13:14:29;99039.20;;;13.04
69590;BMP180;56792;50.644;17.984;2022-11-20T13:17:14;99032.40;;;13.20
69590;BMP180;56792;50.644;17.984;2022-11-20T13:19:55;99030.80;;;13.30
69590;BMP180;56792;50.644;17.984;2022-11-20T13:22:58;99035.40;;;12.40
69590;BMP180;56792;50.644;17.984;2022-11-20T13:25:33;99023.40;;;12.20
69590;BMP180;56792;50.644;17.984;2022-11-20T13:28:29;99013.00;;;10.96
69590;BMP180;56792;50.644;17.984;2022-11-20T13:31:03;99009.20;;;10.70
69590;BMP180;56792;50.644;17.984;2022-11-20T13:33:38;99012.80;;;10.40
69590;BMP180;56792;50.644;17.984;2022-11-20T13:36:31;99016.00;;;9.90
69590;BMP180;56792;50.644;17.984;2022-11-20T13:39:10;99014.40;;;8.88
69590;BMP180;56792;50.644;17.984;2022-11-20T13:41:56;99005.80;;;7.82
69590;BMP180;56792;50.644;17.984;2022-11-20T13:44:38;99005.60;;;6.98
69590;BMP180;56792;50.644;17.984;2022-11-20T13:51:37;99001.60;;;5.50
69590;BMP180;56792;50.644;17.984;2022-11-20T13:54:45;99000.60;;;5.00
69590;BMP180;56792;50.644;17.984;2022-11-20T13:58:07;98999.00;;;4.60
69590;BMP180;56792;50.644;17.984;2022-11-20T14:01:00;98994.00;;;4.30
69590;BMP180;56792;50.644;17.984;2022-11-20T14:03:39;98989.00;;;4.02
69590;BMP180;56792;50.644;17.984;2022-11-20T14:06:26;98982.20;;;3.80
69590;BMP180;56792;50.644;17.984;2022-11-20T14:09:03;98981.00;;;3.50
69590;BMP180;56792;50.644;17.984;2022-11-20T14:11:49;98985.00;;;3.24
69590;BMP180;56792;50.644;17.984;2022-11-20T14:14:24;98983.60;;;3.00
69590;BMP180;56792;50.644;17.984;2022-11-20T14:17:17;98986.40;;;2.86
69590;BMP180;56792;50.644;17.984;2022-11-20T14:19:52;98993.80;;;2.60
69590;BMP180;56792;50.644;17.984;2022-11-20T14:22:28;99000.00;;;2.42
69590;BMP180;56792;50.644;17.984;2022-11-20T14:25:20;98993.20;;;2.16
69590;BMP180;56792;50.644;17.984;2022-11-20T14:27:59;98988.80;;;1.98
69590;BMP180;56792;50.644;17.984;2022-11-20T14:30:42;98989.40;;;1.88
69590;BMP180;56792;50.644;17.984;2022-11-20T14:33:25;98986.00;;;1.70
69590;BMP180;56792;50.644;17.984;2022-11-20T14:36:02;98985.40;;;1.60
69590;BMP180;56792;50.644;17.984;2022-11-20T14:38:35;98974.00;;;1.60
69590;BMP180;56792;50.644;17.984;2022-11-20T14:41:24;98969.40;;;1.50
69590;BMP180;56792;50.644;17.984;2022-11-20T14:44:04;98968.20;;;1.30
69590;BMP180;56792;50.644;17.984;2022-11-20T14:46:42;98961.80;;;1.16
69590;BMP180;56792;50.644;17.984;2022-11-20T14:49:16;98956.60;;;1.02
69590;BMP180;56792;50.644;17.984;2022-11-20T14:52:00;98955.20;;;0.90
69590;BMP180;56792;50.644;17.984;2022-11-20T14:54:33;98945.60;;;0.72
69590;BMP180;56792;50.644;17.984;2022-11-20T14:57:26;98946.60;;;0.70
69590;BMP180;56792;50.644;17.984;2022-11-20T15:00:21;98942.20;;;0.54
69590;BMP180;56792;50.644;17.984;2022-11-20T15:02:55;98938.20;;;0.40
69590;BMP180;56792;50.644;17.984;2022-11-20T15:05:45;98942.80;;;0.30
69590;BMP180;56792;50.644;17.984;2022-11-20T15:08:18;98937.80;;;0.30